sensor_id;sensor_type;location;lat;lon;timestamp;temperature;humidity
30280;DHT22;17097;50.916;5.344;2023-02-28T00:00:22;3.50;99.90
30280;DHT22;17097;50.916;5.344;2023-02-28T00:02:48;3.40;99.90
30280;DHT22;17097;50.916;5.344;2023-02-28T00:05:16;3.40;99.90
30280;DHT22;17097;50.916;5.344;2023-02-28T00:07:43;3.40;99.90
30280;DHT22;17097;50.916;5.344;2023-02-28T00:10:14;3.30;99.90
30280;DHT22;17097;50.916;5.344;2023-02-28T00:12:40;3.30;99.90
30280;DHT22;17097;50.916;5.344;2023-02-28T00:15:08;3.20;99.90
30280;DHT22;17097;50.916;5.344;2023-02-28T00:17:34;3.20;99.90
30280;DHT22;17097;50.916;5.344;2023-02-28T00:20:01;3.20;99.90
30280;DHT22;17097;50.916;5.344;2023-02-28T00:22:30;3.20;99.90
30280;DHT22;17097;50.916;5.344;2023-02-28T00:24:56;3.20;99.90
30280;DHT22;17097;50.916;5.344;2023-02-28T00:27:22;3.20;99.90
30280;DHT22;17097;50.916;5.344;2023-02-28T00:29:48;3.20;99.90
30280;DHT22;17097;50.916;5.344;2023-02-28T00:32:13;3.10;99.90
30280;DHT22;17097;50.916;5.344;2023-02-28T00:34:39;3.10;99.90
30280;DHT22;17097;50.916;5.344;2023-02-28T00:37:06;3.10;99.90
30280;DHT22;17097;50.916;5.344;2023-02-28T00:39:36;3.20;99.90
30280;DHT22;17097;50.916;5.344;2023-02-28T00:42:03;3.10;99.90
30280;DHT22;17097;50.916;5.344;2023-02-28T00:44:29;3.10;99.90
30280;DHT22;17097;50.916;5.344;2023-02-28T00:46:58;3.00;99.90
30280;DHT22;17097;50.916;5.344;2023-02-28T00:49:25;3.00;99.90
30280;DHT22;17097;50.916;5.344;2023-02-28T00:51:52;3.00;99.90
30280;DHT22;17097;50.916;5.344;2023-02-28T00:54:18;3.00;99.90
30280;DHT22;17097;50.916;5.344;2023-02-28T00:56:44;3.00;99.90
30280;DHT22;17097;50.916;5.344;2023-02-28T00:59:14;3.00;99.90
30280;DHT22;17097;50.916;5.344;2023-02-28T01:01:40;3.00;99.90
30280;DHT22;17097;50.916;5.344;2023-02-28T01:04:06;3.00;99.90
30280;DHT22;17097;50.916;5.344;2023-02-28T01:06:32;3.00;99.90
30280;DHT22;17097;50.916;5.344;2023-02-28T01:08:58;3.00;99.90
30280;DHT22;17097;50.916;5.344;2023-02-28T01:11:24;2.90;99.90
30280;DHT22;17097;50.916;5.344;2023-02-28T01:13:52;2.80;99.90
30280;DHT22;17097;50.916;5.344;2023-02-28T01:16:18;2.80;99.90
30280;DHT22;17097;50.916;5.344;2023-02-28T01:18:44;2.80;99.90
30280;DHT22;17097;50.916;5.344;2023-02-28T01:21:13;2.70;99.90
30280;DHT22;17097;50.916;5.344;2023-02-28T01:23:40;2.80;99.90
30280;DHT22;17097;50.916;5.344;2023-02-28T01:26:27;2.70;99.90
30280;DHT22;17097;50.916;5.344;2023-02-28T01:28:53;2.70;99.90
30280;DHT22;17097;50.916;5.344;2023-02-28T01:31:22;2.70;99.90
30280;DHT22;17097;50.916;5.344;2023-02-28T01:33:48;2.70;99.90
30280;DHT22;17097;50.916;5.344;2023-02-28T01:36:17;2.60;99.90
30280;DHT22;17097;50.916;5.344;2023-02-28T01:38:46;2.70;99.90
30280;DHT22;17097;50.916;5.344;2023-02-28T01:46:08;2.70;99.90
30280;DHT22;17097;50.916;5.344;2023-02-28T01:51:55;2.60;99.90
30280;DHT22;17097;50.916;5.344;2023-02-28T01:54:10;2.60;99.90
30280;DHT22;17097;50.916;5.344;2023-02-28T01:56:43;2.50;99.90
30280;DHT22;17097;50.916;5.344;2023-02-28T01:59:10;2.50;99.90
30280;DHT22;17097;50.916;5.344;2023-02-28T02:01:37;2.50;99.90
30280;DHT22;17097;50.916;5.344;2023-02-28T02:04:03;2.60;99.90
30280;DHT22;17097;50.916;5.344;2023-02-28T02:06:34;2.70;99.90
30280;DHT22;17097;50.916;5.344;2023-02-28T02:09:00;2.60;99.90
30280;DHT22;17097;50.916;5.344;2023-02-28T02:11:26;2.60;99.90
30280;DHT22;17097;50.916;5.344;2023-02-28T02:13:59;2.50;99.90
30280;DHT22;17097;50.916;5.344;2023-02-28T02:24:59;2.50;99.90
30280;DHT22;17097;50.916;5.344;2023-02-28T02:30:14;2.50;99.90
30280;DHT22;17097;50.916;5.344;2023-02-28T02:35:28;2.40;99.90
30280;DHT22;17097;50.916;5.344;2023-02-28T02:41:02;2.30;99.90
30280;DHT22;17097;50.916;5.344;2023-02-28T02:43:32;2.30;99.90
30280;DHT22;17097;50.916;5.344;2023-02-28T02:46:04;2.40;99.90
30280;DHT22;17097;50.916;5.344;2023-02-28T02:48:34;2.40;99.90
30280;DHT22;17097;50.916;5.344;2023-02-28T02:51:14;2.30;99.90
30280;DHT22;17097;50.916;5.344;2023-02-28T02:53:47;2.30;99.90
30280;DHT22;17097;50.916;5.344;2023-02-28T02:56:18;2.30;99.90
30280;DHT22;17097;50.916;5.344;2023-02-28T02:58:47;2.20;99.90
30280;DHT22;17097;50.916;5.344;2023-02-28T03:01:20;2.30;99.90
30280;DHT22;17097;50.916;5.344;2023-02-28T03:04:08;2.20;99.90
30280;DHT22;17097;50.916;5.344;2023-02-28T03:06:34;2.20;99.90
30280;DHT22;17097;50.916;5.344;2023-02-28T03:09:03;2.10;99.90
30280;DHT22;17097;50.916;5.344;2023-02-28T03:11:30;2.10;99.90
30280;DHT22;17097;50.916;5.344;2023-02-28T03:19:47;2.10;99.90
30280;DHT22;17097;50.916;5.344;2023-02-28T03:30:47;2.10;99.90
30280;DHT22;17097;50.916;5.344;2023-02-28T03:33:25;2.10;99.90
30280;DHT22;17097;50.916;5.344;2023-02-28T03:35:59;2.10;99.90
30280;DHT22;17097;50.916;5.344;2023-02-28T03:38:51;2.10;99.90
30280;DHT22;17097;50.916;5.344;2023-02-28T03:41:21;2.10;99.90
30280;DHT22;17097;50.916;5.344;2023-02-28T03:43:56;2.10;99.90
30280;DHT22;17097;50.916;5.344;2023-02-28T03:46:28;2.40;99.90
30280;DHT22;17097;50.916;5.344;2023-02-28T03:49:03;2.50;99.90
30280;DHT22;17097;50.916;5.344;2023-02-28T03:51:32;2.60;99.90
30280;DHT22;17097;50.916;5.344;2023-02-28T03:54:02;2.60;99.90
30280;DHT22;17097;50.916;5.344;2023-02-28T03:56:42;2.40;99.90
30280;DHT22;17097;50.916;5.344;2023-02-28T03:59:18;2.40;99.90
30280;DHT22;17097;50.916;5.344;2023-02-28T04:01:48;2.30;99.90
30280;DHT22;17097;50.916;5.344;2023-02-28T04:04:14;2.30;99.90
30280;DHT22;17097;50.916;5.344;2023-02-28T04:06:41;2.20;99.90
30280;DHT22;17097;50.916;5.344;2023-02-28T04:09:09;2.10;99.90
30280;DHT22;17097;50.916;5.344;2023-02-28T04:11:40;2.10;99.90
30280;DHT22;17097;50.916;5.344;2023-02-28T04:14:10;2.10;99.90
30280;DHT22;17097;50.916;5.344;2023-02-28T04:16:39;2.10;99.90
30280;DHT22;17097;50.916;5.344;2023-02-28T04:19:07;2.10;99.90
30280;DHT22;17097;50.916;5.344;2023-02-28T04:21:45;2.00;99.90
30280;DHT22;17097;50.916;5.344;2023-02-28T04:24:22;2.00;99.90
30280;DHT22;17097;50.916;5.344;2023-02-28T04:26:52;2.00;99.90
30280;DHT22;17097;50.916;5.344;2023-02-28T04:29:29;2.00;99.90
30280;DHT22;17097;50.916;5.344;2023-02-28T04:31:59;1.90;99.90
30280;DHT22;17097;50.916;5.344;2023-02-28T04:34:27;1.90;99.90
30280;DHT22;17097;50.916;5.344;2023-02-28T04:36:52;1.90;99.90
30280;DHT22;17097;50.916;5.344;2023-02-28T04:39:23;1.80;99.90
30280;DHT22;17097;50.916;5.344;2023-02-28T04:41:49;1.90;99.90
30280;DHT22;17097;50.916;5.344;2023-02-28T04:44:15;1.90;99.90
30280;DHT22;17097;50.916;5.344;2023-02-28T04:46:42;1.90;99.90
30280;DHT22;17097;50.916;5.344;2023-02-28T04:49:10;1.80;99.90
30280;DHT22;17097;50.916;5.344;2023-02-28T04:51:36;1.80;99.90
30280;DHT22;17097;50.916;5.344;2023-02-28T04:54:02;1.80;99.90
30280;DHT22;17097;50.916;5.344;2023-02-28T04:56:29;1.80;99.90
30280;DHT22;17097;50.916;5.344;2023-02-28T04:58:57;1.70;99.90
30280;DHT22;17097;50.916;5.344;2023-02-28T05:01:28;1.70;99.90
30280;DHT22;17097;50.916;5.344;2023-02-28T05:03:58;1.70;99.90
30280;DHT22;17097;50.916;5.344;2023-02-28T05:06:26;1.70;99.90
30280;DHT22;17097;50.916;5.344;2023-02-28T05:08:53;1.70;99.90
30280;DHT22;17097;50.916;5.344;2023-02-28T05:11:25;1.60;99.90
30280;DHT22;17097;50.916;5.344;2023-02-28T05:13:52;1.60;99.90
30280;DHT22;17097;50.916;5.344;2023-02-28T05:16:19;1.60;99.90
30280;DHT22;17097;50.916;5.344;2023-02-28T05:18:45;1.50;99.90
30280;DHT22;17097;50.916;5.344;2023-02-28T05:21:27;1.50;99.90
30280;DHT22;17097;50.916;5.344;2023-02-28T05:23:54;1.50;99.90
30280;DHT22;17097;50.916;5.344;2023-02-28T05:26:22;1.50;99.90
30280;DHT22;17097;50.916;5.344;2023-02-28T05:28:49;1.50;99.90
30280;DHT22;17097;50.916;5.344;2023-02-28T05:31:15;1.50;99.90
30280;DHT22;17097;50.916;5.344;2023-02-28T05:33:41;1.50;99.90
30280;DHT22;17097;50.916;5.344;2023-02-28T05:36:09;1.40;99.90
30280;DHT22;17097;50.916;5.344;2023-02-28T05:38:38;1.50;99.90
30280;DHT22;17097;50.916;5.344;2023-02-28T05:41:09;1.50;99.90
30280;DHT22;17097;50.916;5.344;2023-02-28T05:43:40;1.50;99.90
30280;DHT22;17097;50.916;5.344;2023-02-28T05:46:07;1.40;99.90
30280;DHT22;17097;50.916;5.344;2023-02-28T05:48:34;1.50;99.90
30280;DHT22;17097;50.916;5.344;2023-02-28T05:51:00;1.40;99.90
30280;DHT22;17097;50.916;5.344;2023-02-28T05:53:29;1.70;99.90
30280;DHT22;17097;50.916;5.344;2023-02-28T05:56:00;1.60;99.90
30280;DHT22;17097;50.916;5.344;2023-02-28T05:58:29;1.50;99.90
30280;DHT22;17097;50.916;5.344;2023-02-28T06:00:59;1.70;99.90
30280;DHT22;17097;50.916;5.344;2023-02-28T06:03:25;1.50;99.90
30280;DHT22;17097;50.916;5.344;2023-02-28T06:05:51;1.50;99.90
30280;DHT22;17097;50.916;5.344;2023-02-28T06:08:17;1.50;99.90
30280;DHT22;17097;50.916;5.344;2023-02-28T06:10:43;1.30;99.90
30280;DHT22;17097;50.916;5.344;2023-02-28T06:13:10;1.20;99.90
30280;DHT22;17097;50.916;5.344;2023-02-28T06:15:38;1.20;99.90
30280;DHT22;17097;50.916;5.344;2023-02-28T06:18:04;1.20;99.90
30280;DHT22;17097;50.916;5.344;2023-02-28T06:20:31;1.30;99.90
30280;DHT22;17097;50.916;5.344;2023-02-28T06:22:57;1.50;99.90
30280;DHT22;17097;50.916;5.344;2023-02-28T06:25:27;1.70;99.90
30280;DHT22;17097;50.916;5.344;2023-02-28T06:27:54;1.60;99.90
30280;DHT22;17097;50.916;5.344;2023-02-28T06:30:20;1.70;99.90
30280;DHT22;17097;50.916;5.344;2023-02-28T06:32:52;1.60;99.90
30280;DHT22;17097;50.916;5.344;2023-02-28T06:35:18;1.50;99.90
30280;DHT22;17097;50.916;5.344;2023-02-28T06:37:43;1.50;99.90
30280;DHT22;17097;50.916;5.344;2023-02-28T06:40:10;1.40;99.90
30280;DHT22;17097;50.916;5.344;2023-02-28T06:42:36;1.30;99.90
30280;DHT22;17097;50.916;5.344;2023-02-28T06:45:04;1.30;99.90
30280;DHT22;17097;50.916;5.344;2023-02-28T06:47:35;1.40;99.90
30280;DHT22;17097;50.916;5.344;2023-02-28T06:50:01;1.50;99.90
30280;DHT22;17097;50.916;5.344;2023-02-28T06:52:26;1.70;99.90
30280;DHT22;17097;50.916;5.344;2023-02-28T06:54:52;2.00;99.90
30280;DHT22;17097;50.916;5.344;2023-02-28T06:57:29;2.50;99.90
30280;DHT22;17097;50.916;5.344;2023-02-28T07:00:00;2.70;99.90
30280;DHT22;17097;50.916;5.344;2023-02-28T07:02:27;2.70;99.90
30280;DHT22;17097;50.916;5.344;2023-02-28T07:04:53;2.90;99.90
30280;DHT22;17097;50.916;5.344;2023-02-28T07:07:18;3.20;99.90
30280;DHT22;17097;50.916;5.344;2023-02-28T07:09:45;3.90;99.90
30280;DHT22;17097;50.916;5.344;2023-02-28T07:12:10;4.80;99.90
30280;DHT22;17097;50.916;5.344;2023-02-28T07:14:38;6.00;99.90
30280;DHT22;17097;50.916;5.344;2023-02-28T07:17:04;7.20;99.90
30280;DHT22;17097;50.916;5.344;2023-02-28T07:19:31;8.20;99.90
30280;DHT22;17097;50.916;5.344;2023-02-28T07:21:57;8.90;99.90
30280;DHT22;17097;50.916;5.344;2023-02-28T07:24:24;9.50;99.90
30280;DHT22;17097;50.916;5.344;2023-02-28T07:26:53;10.30;97.40
30280;DHT22;17097;50.916;5.344;2023-02-28T07:29:19;11.00;94.40
30280;DHT22;17097;50.916;5.344;2023-02-28T07:31:45;11.70;92.60
30280;DHT22;17097;50.916;5.344;2023-02-28T07:34:16;12.20;89.10
30280;DHT22;17097;50.916;5.344;2023-02-28T07:36:42;13.00;82.90
30280;DHT22;17097;50.916;5.344;2023-02-28T07:39:08;13.80;78.10
30280;DHT22;17097;50.916;5.344;2023-02-28T07:41:34;14.40;74.50
30280;DHT22;17097;50.916;5.344;2023-02-28T07:44:11;14.80;71.30
30280;DHT22;17097;50.916;5.344;2023-02-28T07:46:37;14.90;69.80
30280;DHT22;17097;50.916;5.344;2023-02-28T07:49:05;14.90;66.50
30280;DHT22;17097;50.916;5.344;2023-02-28T07:51:32;15.00;68.40
30280;DHT22;17097;50.916;5.344;2023-02-28T07:53:58;14.80;65.20
30280;DHT22;17097;50.916;5.344;2023-02-28T07:56:28;14.40;65.10
30280;DHT22;17097;50.916;5.344;2023-02-28T07:58:54;14.60;66.20
30280;DHT22;17097;50.916;5.344;2023-02-28T08:01:20;15.00;65.90
30280;DHT22;17097;50.916;5.344;2023-02-28T08:03:46;15.30;64.00
30280;DHT22;17097;50.916;5.344;2023-02-28T08:06:20;15.60;62.30
30280;DHT22;17097;50.916;5.344;2023-02-28T08:08:46;15.90;61.60
30280;DHT22;17097;50.916;5.344;2023-02-28T08:11:13;16.30;60.30
30280;DHT22;17097;50.916;5.344;2023-02-28T08:13:41;16.60;58.20
30280;DHT22;17097;50.916;5.344;2023-02-28T08:16:07;16.90;56.90
30280;DHT22;17097;50.916;5.344;2023-02-28T08:18:33;17.10;56.50
30280;DHT22;17097;50.916;5.344;2023-02-28T08:20:59;17.20;56.50
30280;DHT22;17097;50.916;5.344;2023-02-28T08:23:25;17.30;54.90
30280;DHT22;17097;50.916;5.344;2023-02-28T08:25:55;17.30;54.20
30280;DHT22;17097;50.916;5.344;2023-02-28T08:28:22;17.50;54.20
30280;DHT22;17097;50.916;5.344;2023-02-28T08:30:48;17.40;52.20
30280;DHT22;17097;50.916;5.344;2023-02-28T08:33:14;17.00;52.80
30280;DHT22;17097;50.916;5.344;2023-02-28T08:35:40;16.90;54.10
30280;DHT22;17097;50.916;5.344;2023-02-28T08:38:06;16.80;53.80
30280;DHT22;17097;50.916;5.344;2023-02-28T08:40:32;16.60;53.80
30280;DHT22;17097;50.916;5.344;2023-02-28T08:42:58;16.50;53.60
30280;DHT22;17097;50.916;5.344;2023-02-28T08:45:25;16.70;53.60
30280;DHT22;17097;50.916;5.344;2023-02-28T08:47:51;16.50;52.50
30280;DHT22;17097;50.916;5.344;2023-02-28T08:50:18;16.60;53.60
30280;DHT22;17097;50.916;5.344;2023-02-28T08:52:43;16.30;53.40
30280;DHT22;17097;50.916;5.344;2023-02-28T08:55:10;15.80;53.50
30280;DHT22;17097;50.916;5.344;2023-02-28T08:57:36;15.80;54.30
30280;DHT22;17097;50.916;5.344;2023-02-28T09:00:03;16.20;53.60
30280;DHT22;17097;50.916;5.344;2023-02-28T09:02:33;16.50;52.50
30280;DHT22;17097;50.916;5.344;2023-02-28T09:04:59;17.00;51.80
30280;DHT22;17097;50.916;5.344;2023-02-28T09:07:25;17.20;51.80
30280;DHT22;17097;50.916;5.344;2023-02-28T09:09:51;17.10;50.10
30280;DHT22;17097;50.916;5.344;2023-02-28T09:12:24;17.10;50.10
30280;DHT22;17097;50.916;5.344;2023-02-28T09:14:51;17.20;50.20
30280;DHT22;17097;50.916;5.344;2023-02-28T09:17:17;17.40;50.50
30280;DHT22;17097;50.916;5.344;2023-02-28T09:19:43;17.30;49.70
30280;DHT22;17097;50.916;5.344;2023-02-28T09:22:10;17.70;49.20
30280;DHT22;17097;50.916;5.344;2023-02-28T09:24:39;17.80;47.90
30280;DHT22;17097;50.916;5.344;2023-02-28T09:27:05;17.80;46.40
30280;DHT22;17097;50.916;5.344;2023-02-28T09:29:32;18.00;46.70
30280;DHT22;17097;50.916;5.344;2023-02-28T09:32:01;17.00;44.80
30280;DHT22;17097;50.916;5.344;2023-02-28T09:34:31;17.10;46.10
30280;DHT22;17097;50.916;5.344;2023-02-28T09:36:56;16.90;45.80
30280;DHT22;17097;50.916;5.344;2023-02-28T09:39:22;15.90;45.40
30280;DHT22;17097;50.916;5.344;2023-02-28T09:41:55;15.60;46.80
30280;DHT22;17097;50.916;5.344;2023-02-28T09:47:56;14.60;47.40
30280;DHT22;17097;50.916;5.344;2023-02-28T09:49:51;14.70;47.30
30280;DHT22;17097;50.916;5.344;2023-02-28T09:52:21;14.50;48.90
30280;DHT22;17097;50.916;5.344;2023-02-28T09:54:49;14.60;48.80
30280;DHT22;17097;50.916;5.344;2023-02-28T09:57:35;14.40;49.30
30280;DHT22;17097;50.916;5.344;2023-02-28T10:00:13;14.50;47.60
30280;DHT22;17097;50.916;5.344;2023-02-28T10:05:33;14.50;48.00
30280;DHT22;17097;50.916;5.344;2023-02-28T10:08:19;14.90;48.20
30280;DHT22;17097;50.916;5.344;2023-02-28T10:10:54;14.70;47.10
30280;DHT22;17097;50.916;5.344;2023-02-28T10:13:32;14.70;47.50
30280;DHT22;17097;50.916;5.344;2023-02-28T10:16:06;15.10;46.50
30280;DHT22;17097;50.916;5.344;2023-02-28T10:18:47;15.30;47.00
30280;DHT22;17097;50.916;5.344;2023-02-28T10:21:28;15.30;46.30
30280;DHT22;17097;50.916;5.344;2023-02-28T10:24:05;15.70;46.20
30280;DHT22;17097;50.916;5.344;2023-02-28T10:26:40;15.60;44.90
30280;DHT22;17097;50.916;5.344;2023-02-28T10:29:09;15.40;46.40
30280;DHT22;17097;50.916;5.344;2023-02-28T10:31:36;16.10;45.30
30280;DHT22;17097;50.916;5.344;2023-02-28T10:34:03;16.20;44.20
30280;DHT22;17097;50.916;5.344;2023-02-28T10:36:32;16.00;43.70
30280;DHT22;17097;50.916;5.344;2023-02-28T10:38:57;15.70;44.50
30280;DHT22;17097;50.916;5.344;2023-02-28T10:41:32;16.10;43.80
30280;DHT22;17097;50.916;5.344;2023-02-28T10:44:20;16.00;43.60
30280;DHT22;17097;50.916;5.344;2023-02-28T10:46:50;15.50;44.20
30280;DHT22;17097;50.916;5.344;2023-02-28T10:49:28;15.10;44.20
30280;DHT22;17097;50.916;5.344;2023-02-28T10:51:59;14.70;43.80
30280;DHT22;17097;50.916;5.344;2023-02-28T10:54:34;14.60;43.90
30280;DHT22;17097;50.916;5.344;2023-02-28T10:57:14;14.90;44.50
30280;DHT22;17097;50.916;5.344;2023-02-28T10:59:42;15.10;44.00
30280;DHT22;17097;50.916;5.344;2023-02-28T11:02:32;15.10;44.00
30280;DHT22;17097;50.916;5.344;2023-02-28T11:05:00;14.90;43.60
30280;DHT22;17097;50.916;5.344;2023-02-28T11:07:27;14.60;44.50
30280;DHT22;17097;50.916;5.344;2023-02-28T11:09:57;14.70;44.50
30280;DHT22;17097;50.916;5.344;2023-02-28T11:12:37;14.70;43.80
30280;DHT22;17097;50.916;5.344;2023-02-28T11:15:30;14.50;43.50
30280;DHT22;17097;50.916;5.344;2023-02-28T11:18:21;14.20;43.20
30280;DHT22;17097;50.916;5.344;2023-02-28T11:20:52;14.20;44.30
30280;DHT22;17097;50.916;5.344;2023-02-28T11:23:21;14.70;45.20
30280;DHT22;17097;50.916;5.344;2023-02-28T11:25:52;14.90;43.30
30280;DHT22;17097;50.916;5.344;2023-02-28T11:33:32;14.80;42.90
30280;DHT22;17097;50.916;5.344;2023-02-28T11:36:08;14.60;43.10
30280;DHT22;17097;50.916;5.344;2023-02-28T11:38:36;14.60;42.90
30280;DHT22;17097;50.916;5.344;2023-02-28T11:41:19;14.30;43.10
30280;DHT22;17097;50.916;5.344;2023-02-28T11:55:21;13.40;44.70
30280;DHT22;17097;50.916;5.344;2023-02-28T12:17:18;10.90;49.10
30280;DHT22;17097;50.916;5.344;2023-02-28T12:20:11;10.90;51.00
30280;DHT22;17097;50.916;5.344;2023-02-28T12:27:43;10.40;49.60
30280;DHT22;17097;50.916;5.344;2023-02-28T12:30:21;10.60;51.80
30280;DHT22;17097;50.916;5.344;2023-02-28T12:33:12;10.40;51.10
30280;DHT22;17097;50.916;5.344;2023-02-28T12:36:01;10.90;52.20
30280;DHT22;17097;50.916;5.344;2023-02-28T12:41:39;11.60;50.20
30280;DHT22;17097;50.916;5.344;2023-02-28T12:44:34;11.80;48.60
30280;DHT22;17097;50.916;5.344;2023-02-28T12:47:08;11.80;49.90
30280;DHT22;17097;50.916;5.344;2023-02-28T12:49:52;11.60;49.70
30280;DHT22;17097;50.916;5.344;2023-02-28T13:00:37;11.40;50.00
30280;DHT22;17097;50.916;5.344;2023-02-28T13:11:48;11.50;51.10
30280;DHT22;17097;50.916;5.344;2023-02-28T13:19:31;11.10;49.80
30280;DHT22;17097;50.916;5.344;2023-02-28T13:22:01;10.70;51.30
30280;DHT22;17097;50.916;5.344;2023-02-28T13:24:52;10.80;51.90
30280;DHT22;17097;50.916;5.344;2023-02-28T13:29:51;10.50;52.30
30280;DHT22;17097;50.916;5.344;2023-02-28T13:32:30;10.60;52.60
30280;DHT22;17097;50.916;5.344;2023-02-28T13:40:37;10.60;53.50
30280;DHT22;17097;50.916;5.344;2023-02-28T13:42:49;10.70;52.80
30280;DHT22;17097;50.916;5.344;2023-02-28T13:45:26;10.50;53.00
30280;DHT22;17097;50.916;5.344;2023-02-28T13:47:54;10.40;53.00
30280;DHT22;17097;50.916;5.344;2023-02-28T14:01:57;9.70;54.50
30280;DHT22;17097;50.916;5.344;2023-02-28T14:07:59;9.40;57.30
30280;DHT22;17097;50.916;5.344;2023-02-28T14:10:27;9.50;55.20
30280;DHT22;17097;50.916;5.344;2023-02-28T14:18:15;9.70;56.80
30280;DHT22;17097;50.916;5.344;2023-02-28T14:20:42;9.70;56.20
30280;DHT22;17097;50.916;5.344;2023-02-28T14:23:24;9.70;56.30
30280;DHT22;17097;50.916;5.344;2023-02-28T14:26:10;9.80;57.20
30280;DHT22;17097;50.916;5.344;2023-02-28T14:31:17;9.90;57.40
30280;DHT22;17097;50.916;5.344;2023-02-28T14:36:40;9.60;57.00
30280;DHT22;17097;50.916;5.344;2023-02-28T14:39:11;9.40;56.90
30280;DHT22;17097;50.916;5.344;2023-02-28T14:41:40;9.40;58.00
30280;DHT22;17097;50.916;5.344;2023-02-28T14:44:23;9.50;58.60
30280;DHT22;17097;50.916;5.344;2023-02-28T14:46:55;9.60;58.10
30280;DHT22;17097;50.916;5.344;2023-02-28T14:49:21;9.60;59.20
30280;DHT22;17097;50.916;5.344;2023-02-28T14:51:50;9.80;59.40
30280;DHT22;17097;50.916;5.344;2023-02-28T14:54:27;9.80;60.30
30280;DHT22;17097;50.916;5.344;2023-02-28T14:56:55;10.00;60.10
30280;DHT22;17097;50.916;5.344;2023-02-28T14:59:28;10.00;58.80
30280;DHT22;17097;50.916;5.344;2023-02-28T15:02:36;10.00;59.40
30280;DHT22;17097;50.916;5.344;2023-02-28T15:07:35;9.80;58.90
30280;DHT22;17097;50.916;5.344;2023-02-28T15:10:26;9.90;59.40
30280;DHT22;17097;50.916;5.344;2023-02-28T15:13:00;10.00;58.40
30280;DHT22;17097;50.916;5.344;2023-02-28T15:15:44;10.00;60.20
30280;DHT22;17097;50.916;5.344;2023-02-28T15:21:27;9.90;58.50
30280;DHT22;17097;50.916;5.344;2023-02-28T15:24:04;9.90;59.10
30280;DHT22;17097;50.916;5.344;2023-02-28T15:26:39;9.70;58.80
30280;DHT22;17097;50.916;5.344;2023-02-28T15:29:11;9.80;60.70
30280;DHT22;17097;50.916;5.344;2023-02-28T15:32:00;9.70;61.00
30280;DHT22;17097;50.916;5.344;2023-02-28T15:34:39;9.80;59.80
30280;DHT22;17097;50.916;5.344;2023-02-28T15:39:53;9.70;58.50
30280;DHT22;17097;50.916;5.344;2023-02-28T15:42:22;9.70;59.80
30280;DHT22;17097;50.916;5.344;2023-02-28T15:44:48;9.70;67.60
30280;DHT22;17097;50.916;5.344;2023-02-28T15:47:35;9.60;59.60
30280;DHT22;17097;50.916;5.344;2023-02-28T15:50:05;9.50;59.20
30280;DHT22;17097;50.916;5.344;2023-02-28T15:52:40;9.30;59.20
30280;DHT22;17097;50.916;5.344;2023-02-28T15:57:39;9.10;60.90
30280;DHT22;17097;50.916;5.344;2023-02-28T16:00:11;9.00;61.30
30280;DHT22;17097;50.916;5.344;2023-02-28T16:02:38;8.90;61.80
30280;DHT22;17097;50.916;5.344;2023-02-28T16:07:37;8.70;62.30
30280;DHT22;17097;50.916;5.344;2023-02-28T16:10:05;8.60;64.40
30280;DHT22;17097;50.916;5.344;2023-02-28T16:12:34;8.60;64.40
30280;DHT22;17097;50.916;5.344;2023-02-28T16:15:08;8.70;63.90
30280;DHT22;17097;50.916;5.344;2023-02-28T16:17:37;8.60;64.20
30280;DHT22;17097;50.916;5.344;2023-02-28T16:20:45;8.60;65.20
30280;DHT22;17097;50.916;5.344;2023-02-28T16:23:07;8.50;65.40
30280;DHT22;17097;50.916;5.344;2023-02-28T16:25:43;8.40;65.40
30280;DHT22;17097;50.916;5.344;2023-02-28T16:28:37;8.30;66.00
30280;DHT22;17097;50.916;5.344;2023-02-28T16:31:06;8.30;65.60
30280;DHT22;17097;50.916;5.344;2023-02-28T16:33:33;8.10;66.40
30280;DHT22;17097;50.916;5.344;2023-02-28T16:36:00;8.00;67.60
30280;DHT22;17097;50.916;5.344;2023-02-28T16:38:27;7.90;68.20
30280;DHT22;17097;50.916;5.344;2023-02-28T16:40:55;8.00;68.10
30280;DHT22;17097;50.916;5.344;2023-02-28T16:43:24;8.00;67.60
30280;DHT22;17097;50.916;5.344;2023-02-28T16:45:56;8.00;68.90
30280;DHT22;17097;50.916;5.344;2023-02-28T16:48:25;7.90;69.20
30280;DHT22;17097;50.916;5.344;2023-02-28T16:50:51;7.90;69.20
30280;DHT22;17097;50.916;5.344;2023-02-28T16:53:17;7.80;68.90
30280;DHT22;17097;50.916;5.344;2023-02-28T16:55:45;7.70;69.50
30280;DHT22;17097;50.916;5.344;2023-02-28T16:58:15;7.70;70.40
30280;DHT22;17097;50.916;5.344;2023-02-28T17:00:41;7.60;70.70
30280;DHT22;17097;50.916;5.344;2023-02-28T17:03:24;7.80;69.60
30280;DHT22;17097;50.916;5.344;2023-02-28T17:05:51;7.70;69.20
30280;DHT22;17097;50.916;5.344;2023-02-28T17:08:18;7.60;70.70
30280;DHT22;17097;50.916;5.344;2023-02-28T17:10:44;7.60;71.00
30280;DHT22;17097;50.916;5.344;2023-02-28T17:13:10;7.50;70.50
30280;DHT22;17097;50.916;5.344;2023-02-28T17:15:37;7.40;71.20
30280;DHT22;17097;50.916;5.344;2023-02-28T17:18:04;7.30;71.90
30280;DHT22;17097;50.916;5.344;2023-02-28T17:20:32;7.20;72.80
30280;DHT22;17097;50.916;5.344;2023-02-28T17:22:58;7.10;73.20
30280;DHT22;17097;50.916;5.344;2023-02-28T17:25:24;7.00;74.00
30280;DHT22;17097;50.916;5.344;2023-02-28T17:27:50;7.00;74.50
30280;DHT22;17097;50.916;5.344;2023-02-28T17:30:22;7.00;75.60
30280;DHT22;17097;50.916;5.344;2023-02-28T17:32:48;6.90;74.90
30280;DHT22;17097;50.916;5.344;2023-02-28T17:35:15;6.90;75.10
30280;DHT22;17097;50.916;5.344;2023-02-28T17:37:41;6.90;75.20
30280;DHT22;17097;50.916;5.344;2023-02-28T17:40:17;6.80;75.70
30280;DHT22;17097;50.916;5.344;2023-02-28T17:42:45;6.70;76.40
30280;DHT22;17097;50.916;5.344;2023-02-28T17:45:12;6.80;76.30
30280;DHT22;17097;50.916;5.344;2023-02-28T17:47:39;6.70;76.50
30280;DHT22;17097;50.916;5.344;2023-02-28T17:50:05;6.70;77.30
30280;DHT22;17097;50.916;5.344;2023-02-28T17:52:31;6.60;77.60
30280;DHT22;17097;50.916;5.344;2023-02-28T17:55:03;6.60;78.00
30280;DHT22;17097;50.916;5.344;2023-02-28T17:57:29;6.60;78.00
30280;DHT22;17097;50.916;5.344;2023-02-28T17:59:55;6.50;78.50
30280;DHT22;17097;50.916;5.344;2023-02-28T18:02:20;6.40;79.30
30280;DHT22;17097;50.916;5.344;2023-02-28T18:04:46;6.40;80.00
30280;DHT22;17097;50.916;5.344;2023-02-28T18:07:13;6.30;81.00
30280;DHT22;17097;50.916;5.344;2023-02-28T18:09:39;6.30;81.20
30280;DHT22;17097;50.916;5.344;2023-02-28T18:12:05;6.30;81.30
30280;DHT22;17097;50.916;5.344;2023-02-28T18:14:33;6.30;81.60
30280;DHT22;17097;50.916;5.344;2023-02-28T18:17:02;6.30;81.80
30280;DHT22;17097;50.916;5.344;2023-02-28T18:19:27;6.20;82.10
30280;DHT22;17097;50.916;5.344;2023-02-28T18:21:53;6.20;82.90
30280;DHT22;17097;50.916;5.344;2023-02-28T18:24:24;6.10;83.60
30280;DHT22;17097;50.916;5.344;2023-02-28T18:26:50;6.10;83.30
30280;DHT22;17097;50.916;5.344;2023-02-28T18:29:21;6.30;82.80
30280;DHT22;17097;50.916;5.344;2023-02-28T18:31:48;6.30;82.70
30280;DHT22;17097;50.916;5.344;2023-02-28T18:34:14;6.30;83.50
30280;DHT22;17097;50.916;5.344;2023-02-28T18:36:39;6.30;83.40